createdAt,value
2022-08-17T00:00:43.800Z,56.40
2022-08-17T00:01:19.300Z,56.30
2022-08-17T00:02:48.492Z,56.30
2022-08-17T00:03:47.355Z,56.40
2022-08-17T00:05:29.539Z,56.40
2022-08-17T00:06:54.331Z,56.40
2022-08-17T00:07:30.483Z,56.40
2022-08-17T00:08:30.484Z,56.51
2022-08-17T00:09:30.446Z,56.51
2022-08-17T00:10:32.418Z,56.51
2022-08-17T00:11:30.441Z,56.60
2022-08-17T00:12:42.317Z,56.51
2022-08-17T00:13:30.402Z,56.51
2022-08-17T00:14:30.411Z,56.60
2022-08-17T00:15:30.421Z,56.51
2022-08-17T00:16:55.360Z,56.51
2022-08-17T00:17:30.397Z,56.40
2022-08-17T00:18:53.910Z,56.51
2022-08-17T00:19:30.354Z,56.51
2022-08-17T00:20:33.559Z,56.51
2022-08-17T00:21:56.337Z,56.51
2022-08-17T00:22:40.120Z,56.63
2022-08-17T00:23:30.313Z,56.63
2022-08-17T00:24:30.302Z,56.63
2022-08-17T00:25:30.309Z,56.60
2022-08-17T00:26:43.686Z,56.51
2022-08-17T00:27:30.314Z,56.51
2022-08-17T00:28:31.070Z,56.60
2022-08-17T00:29:30.280Z,56.63
2022-08-17T00:30:30.227Z,56.63
2022-08-17T00:31:30.234Z,56.73
2022-08-17T00:33:23.147Z,56.73
2022-08-17T00:33:30.801Z,56.83
2022-08-17T00:34:30.308Z,56.83
2022-08-17T00:35:30.204Z,57.03
2022-08-17T00:36:30.167Z,56.93
2022-08-17T00:37:30.174Z,57.03
2022-08-17T00:38:30.408Z,56.93
2022-08-17T00:39:30.208Z,57.03
2022-08-17T00:40:40.846Z,57.03
2022-08-17T00:41:30.973Z,57.03
2022-08-17T00:42:31.226Z,57.23
2022-08-17T00:43:30.115Z,57.23
2022-08-17T00:44:30.302Z,57.23
2022-08-17T00:45:30.129Z,57.23
2022-08-17T00:46:30.064Z,57.33
2022-08-17T00:47:30.068Z,57.33
2022-08-17T00:48:30.865Z,57.43
2022-08-17T00:49:30.054Z,57.63
2022-08-17T00:50:30.022Z,57.73
2022-08-17T00:51:30.045Z,57.82
2022-08-17T00:52:30.024Z,57.93
2022-08-17T00:53:36.129Z,57.82
2022-08-17T00:54:30.001Z,57.93
2022-08-17T00:55:29.996Z,58.03
2022-08-17T00:56:30.034Z,58.03
2022-08-17T00:57:29.971Z,58.12
2022-08-17T00:58:35.810Z,58.15
2022-08-17T00:59:29.974Z,58.06
2022-08-17T01:00:29.927Z,58.15
2022-08-17T01:01:29.947Z,58.25
2022-08-17T01:02:29.885Z,58.25
2022-08-17T01:03:29.928Z,58.33
2022-08-17T01:04:29.906Z,58.36
2022-08-17T01:05:29.859Z,58.45
2022-08-17T01:06:30.046Z,58.55
2022-08-17T01:07:29.880Z,58.75
2022-08-17T01:08:29.838Z,58.75
2022-08-17T01:09:29.868Z,58.75
2022-08-17T01:10:59.222Z,58.95
2022-08-17T01:11:29.831Z,59.05
2022-08-17T01:12:29.784Z,59.05
2022-08-17T01:13:29.795Z,59.15
2022-08-17T01:14:29.796Z,59.05
2022-08-17T01:15:29.780Z,58.95
2022-08-17T01:16:29.754Z,58.95
2022-08-17T01:17:57.306Z,58.85
2022-08-17T01:18:29.769Z,58.85
2022-08-17T01:19:29.729Z,58.95
2022-08-17T01:20:29.848Z,58.95
2022-08-17T01:21:29.713Z,59.05
2022-08-17T01:22:29.788Z,59.15
2022-08-17T01:23:29.689Z,59.15
2022-08-17T01:24:30.130Z,59.25
2022-08-17T01:25:29.731Z,59.35
2022-08-17T01:26:29.775Z,59.35
2022-08-17T01:27:29.683Z,59.25
2022-08-17T01:28:53.191Z,59.25
2022-08-17T01:29:29.687Z,59.45
2022-08-17T01:30:57.365Z,59.55
2022-08-17T01:31:29.970Z,59.55
2022-08-17T01:32:29.888Z,59.65
2022-08-17T01:33:29.689Z,60.05
2022-08-17T01:34:42.814Z,60.35
2022-08-17T01:35:29.584Z,60.45
2022-08-17T01:36:29.595Z,60.95
2022-08-17T01:37:29.549Z,60.95
2022-08-17T01:38:29.564Z,60.65
2022-08-17T01:39:29.692Z,60.78
2022-08-17T01:40:29.565Z,60.97
2022-08-17T01:41:29.534Z,61.05
2022-08-17T01:42:29.486Z,61.05
2022-08-17T01:43:29.474Z,61.05
2022-08-17T01:44:29.468Z,61.08
2022-08-17T01:45:29.478Z,61.05
2022-08-17T01:46:29.453Z,60.95
2022-08-17T01:47:29.898Z,60.97
2022-08-17T01:48:29.466Z,60.78
2022-08-17T01:49:29.434Z,60.68
2022-08-17T01:50:29.400Z,60.48
2022-08-17T01:51:29.384Z,60.48
2022-08-17T01:52:29.449Z,60.38
2022-08-17T01:53:29.350Z,60.28
2022-08-17T01:54:29.402Z,60.28
2022-08-17T01:55:29.339Z,60.28
2022-08-17T01:56:29.393Z,60.38
2022-08-17T01:57:29.321Z,60.28
2022-08-17T01:58:29.336Z,60.38
2022-08-17T01:59:29.293Z,60.28
2022-08-17T02:00:59.370Z,60.38
2022-08-17T02:01:29.320Z,60.38
2022-08-17T02:02:30.975Z,60.58
2022-08-17T02:03:29.258Z,60.61
2022-08-17T02:04:29.293Z,60.61
2022-08-17T02:05:29.235Z,60.61
2022-08-17T02:06:29.240Z,60.61
2022-08-17T02:07:29.220Z,60.71
2022-08-17T02:08:37.002Z,60.80
2022-08-17T02:09:29.760Z,61.00
2022-08-17T02:10:33.713Z,61.10
2022-08-17T02:11:29.175Z,61.30
2022-08-17T02:12:39.105Z,61.30
2022-08-17T02:13:29.147Z,61.41
2022-08-17T02:14:29.155Z,61.51
2022-08-17T02:15:29.142Z,61.51
2022-08-17T02:16:29.133Z,61.63
2022-08-17T02:17:29.113Z,61.60
2022-08-17T02:18:29.727Z,61.54
2022-08-17T02:19:30.747Z,61.54
2022-08-17T02:20:41.366Z,61.63
2022-08-17T02:21:30.216Z,61.63
2022-08-17T02:22:31.364Z,61.73
2022-08-17T02:23:30.662Z,61.73
2022-08-17T02:25:00.651Z,61.83
2022-08-17T02:25:29.055Z,61.83
2022-08-17T02:26:29.745Z,61.93
2022-08-17T02:27:29.038Z,61.93
2022-08-17T02:28:29.012Z,61.93
2022-08-17T02:29:29.764Z,61.93
2022-08-17T02:31:00.007Z,62.04
2022-08-17T02:31:29.061Z,62.04
2022-08-17T02:32:29.731Z,62.04
2022-08-17T02:33:37.205Z,62.04
2022-08-17T02:34:28.945Z,62.04
2022-08-17T02:35:29.076Z,61.93
2022-08-17T02:36:29.009Z,61.83
2022-08-17T02:37:28.914Z,61.73
2022-08-17T02:39:27.940Z,61.71
2022-08-17T02:40:35.966Z,61.73
2022-08-17T02:41:31.990Z,61.83
2022-08-17T02:42:28.187Z,61.83
2022-08-17T02:43:26.090Z,61.93
2022-08-17T02:44:39.632Z,61.93
2022-08-17T02:45:26.349Z,61.93
2022-08-17T02:46:25.382Z,62.04
2022-08-17T02:47:25.387Z,62.13
2022-08-17T02:48:31.172Z,62.04
2022-08-17T02:49:25.450Z,62.04
2022-08-17T02:50:25.452Z,62.04
2022-08-17T02:51:25.336Z,62.13
2022-08-17T02:52:43.038Z,62.23
2022-08-17T02:53:25.767Z,62.23
2022-08-17T02:54:40.030Z,62.34
2022-08-17T02:55:25.382Z,62.34
2022-08-17T02:56:25.277Z,62.43
2022-08-17T02:57:25.355Z,62.53
2022-08-17T02:58:34.549Z,62.66
2022-08-17T02:59:25.668Z,63.03
2022-08-17T03:00:25.253Z,63.36
2022-08-17T03:01:25.338Z,63.46
2022-08-17T03:02:25.223Z,63.56
2022-08-17T03:03:25.215Z,63.66
2022-08-17T03:04:25.228Z,63.73
2022-08-17T03:05:25.199Z,63.86
2022-08-17T03:06:25.201Z,64.06
2022-08-17T03:07:25.182Z,64.26
2022-08-17T03:08:25.152Z,64.16
2022-08-17T03:09:25.157Z,64.16
2022-08-17T03:10:25.136Z,64.26
2022-08-17T03:11:25.162Z,64.26
2022-08-17T03:12:25.156Z,64.16
2022-08-17T03:13:25.119Z,64.16
2022-08-17T03:14:26.183Z,64.06
2022-08-17T03:15:25.101Z,64.16
2022-08-17T03:16:25.070Z,64.16
2022-08-17T03:17:25.132Z,64.26
2022-08-17T03:18:26.249Z,64.16
2022-08-17T03:19:25.060Z,64.36
2022-08-17T03:20:25.035Z,64.46
2022-08-17T03:21:25.022Z,64.69
2022-08-17T03:22:37.176Z,64.69
2022-08-17T03:23:25.560Z,64.69
2022-08-17T03:24:28.630Z,64.39
2022-08-17T03:25:24.993Z,64.39
2022-08-17T03:26:24.974Z,64.39
2022-08-17T03:27:24.974Z,64.59
2022-08-17T03:28:24.978Z,64.49
2022-08-17T03:29:24.962Z,64.39
2022-08-17T03:30:24.996Z,64.49
2022-08-17T03:31:24.914Z,64.49
2022-08-17T03:32:24.918Z,64.49
2022-08-17T03:33:25.023Z,64.49
2022-08-17T03:34:25.058Z,64.49
2022-08-17T03:35:32.985Z,64.59
2022-08-17T03:36:24.874Z,64.59
2022-08-17T03:37:25.000Z,64.69
2022-08-17T03:39:18.244Z,64.69
2022-08-17T03:40:55.286Z,64.69
2022-08-17T03:41:19.231Z,64.69
2022-08-17T03:42:32.095Z,64.79
2022-08-17T03:43:19.243Z,64.89
2022-08-17T03:44:19.870Z,65.09
2022-08-17T03:45:19.150Z,65.09
2022-08-17T03:46:28.100Z,65.29
2022-08-17T03:47:19.783Z,65.39
2022-08-17T03:48:19.177Z,65.39
2022-08-17T03:49:19.088Z,65.39
2022-08-17T03:50:19.104Z,65.39
2022-08-17T03:51:19.068Z,65.49
2022-08-17T03:52:19.129Z,65.59
2022-08-17T03:53:19.252Z,65.59
2022-08-17T03:54:19.058Z,65.79
2022-08-17T03:55:19.071Z,65.79
2022-08-17T03:56:55.403Z,66.09
2022-08-17T03:57:23.575Z,65.99
2022-08-17T04:00:21.376Z,65.99
2022-08-17T04:00:26.318Z,65.86
2022-08-17T04:02:39.736Z,65.86
2022-08-17T04:03:40.553Z,65.86
2022-08-17T04:05:15.244Z,65.76
2022-08-17T04:05:40.506Z,65.76
2022-08-17T04:06:40.488Z,65.66
2022-08-17T04:07:42.201Z,65.79
2022-08-17T04:08:40.450Z,65.79
2022-08-17T04:10:12.605Z,65.79
2022-08-17T04:10:44.828Z,65.79
2022-08-17T04:11:40.539Z,65.79
2022-08-17T04:12:42.139Z,65.89
2022-08-17T04:13:42.321Z,65.89
2022-08-17T04:14:53.147Z,65.89
2022-08-17T04:15:40.418Z,65.99
2022-08-17T04:16:40.384Z,65.99
2022-08-17T04:17:41.347Z,66.09
2022-08-17T04:18:40.370Z,66.19
2022-08-17T04:19:40.388Z,66.29
2022-08-17T04:20:40.903Z,66.29
2022-08-17T04:21:40.333Z,66.39
2022-08-17T04:22:40.330Z,66.39
2022-08-17T04:23:46.404Z,66.39
2022-08-17T04:24:40.331Z,66.59
2022-08-17T04:25:57.355Z,66.59
2022-08-17T04:27:33.427Z,66.69
2022-08-17T04:28:34.110Z,66.79
2022-08-17T04:29:54.351Z,66.69
2022-08-17T04:31:45.789Z,66.49
2022-08-17T04:33:00.497Z,66.49
2022-08-17T04:34:55.937Z,66.49
2022-08-17T04:35:57.009Z,66.63
2022-08-17T04:37:03.378Z,66.42
2022-08-17T04:38:06.218Z,66.42
2022-08-17T04:40:07.307Z,66.22
2022-08-17T04:41:08.316Z,66.42
2022-08-17T04:42:59.997Z,66.22
2022-08-17T04:43:59.619Z,66.09
2022-08-17T04:45:08.925Z,66.09
2022-08-17T04:45:59.600Z,65.89
2022-08-17T04:47:05.701Z,65.89
2022-08-17T04:49:12.982Z,65.89
2022-08-17T04:50:14.918Z,65.79
2022-08-17T04:51:13.539Z,65.79
2022-08-17T04:52:32.343Z,65.69
2022-08-17T04:53:13.640Z,65.69
2022-08-17T04:54:13.628Z,65.59
2022-08-17T04:55:15.160Z,65.69
2022-08-17T04:57:29.243Z,65.39
2022-08-17T05:00:45.058Z,65.09
2022-08-17T05:01:46.043Z,65.09
2022-08-17T05:02:50.175Z,64.99
2022-08-17T05:04:38.040Z,64.89
2022-08-17T05:05:39.030Z,64.79
2022-08-17T05:06:39.051Z,64.69
2022-08-17T05:08:44.913Z,64.49
2022-08-17T05:10:56.334Z,64.29
2022-08-17T05:11:57.503Z,64.19
2022-08-17T05:13:55.910Z,63.96
2022-08-17T05:15:03.006Z,63.86
2022-08-17T05:15:56.940Z,63.66
2022-08-17T05:17:09.427Z,63.46
2022-08-17T05:17:56.862Z,63.36
2022-08-17T05:18:56.846Z,63.26
2022-08-17T05:20:03.168Z,63.17
2022-08-17T05:20:56.842Z,63.17
2022-08-17T05:21:56.954Z,63.26
2022-08-17T05:22:56.795Z,63.36
2022-08-17T05:23:56.792Z,63.46
2022-08-17T05:24:56.916Z,63.36
2022-08-17T05:26:06.285Z,63.17
2022-08-17T05:26:57.509Z,63.13
2022-08-17T05:27:56.751Z,63.06
2022-08-17T05:28:59.419Z,62.93
2022-08-17T05:29:56.821Z,62.73
2022-08-17T05:30:56.725Z,62.63
2022-08-17T05:31:56.722Z,62.43
2022-08-17T05:32:57.047Z,62.13
2022-08-17T05:34:02.804Z,62.04
2022-08-17T05:34:56.703Z,61.63
2022-08-17T05:35:56.683Z,61.54
2022-08-17T05:36:56.669Z,61.33
2022-08-17T05:37:56.686Z,61.04
2022-08-17T05:38:56.640Z,60.63
2022-08-17T05:39:56.994Z,60.33
2022-08-17T05:41:02.754Z,60.53
2022-08-17T05:41:56.619Z,60.33
2022-08-17T05:42:56.665Z,60.21
2022-08-17T05:43:56.827Z,60.21
2022-08-17T05:44:56.603Z,59.91
2022-08-17T05:45:56.718Z,59.91
2022-08-17T05:46:56.715Z,59.61
2022-08-17T05:48:03.665Z,59.51
2022-08-17T05:48:56.565Z,59.61
2022-08-17T05:49:56.545Z,59.48
2022-08-17T05:51:08.173Z,59.48
2022-08-17T05:52:47.023Z,59.68
2022-08-17T05:53:47.956Z,60.08
2022-08-17T05:54:47.965Z,59.78
2022-08-17T05:55:47.990Z,59.88
2022-08-17T05:56:47.880Z,59.88
2022-08-17T05:57:54.148Z,59.88
2022-08-17T05:58:48.615Z,59.75
2022-08-17T05:59:53.958Z,59.85
2022-08-17T06:00:47.985Z,59.85
2022-08-17T06:01:47.839Z,60.05
2022-08-17T06:02:48.187Z,60.25
2022-08-17T06:03:47.813Z,60.35
2022-08-17T06:04:47.840Z,60.45
2022-08-17T06:05:59.423Z,60.55
2022-08-17T06:07:39.216Z,60.55
2022-08-17T06:08:40.205Z,60.35
2022-08-17T06:09:40.163Z,60.35
2022-08-17T06:10:40.298Z,60.35
2022-08-17T06:11:40.169Z,60.32
2022-08-17T06:12:40.137Z,60.42
2022-08-17T06:13:40.136Z,60.52
2022-08-17T06:14:40.128Z,60.32
2022-08-17T06:15:40.138Z,60.32
2022-08-17T06:16:40.173Z,60.22
2022-08-17T06:17:40.088Z,60.32
2022-08-17T06:18:40.057Z,60.32
2022-08-17T06:19:40.106Z,60.32
2022-08-17T06:20:40.036Z,60.62
2022-08-17T06:21:41.056Z,60.52
2022-08-17T06:22:40.063Z,60.12
2022-08-17T06:23:40.039Z,59.92
2022-08-17T06:24:40.049Z,59.89
2022-08-17T06:25:40.021Z,59.69
2022-08-17T06:26:43.287Z,59.69
2022-08-17T06:27:39.976Z,59.69
2022-08-17T06:28:40.306Z,59.49
2022-08-17T06:29:39.985Z,59.49
2022-08-17T06:30:58.539Z,59.39
2022-08-17T06:31:40.328Z,59.39
2022-08-17T06:32:41.352Z,59.49
2022-08-17T06:33:39.910Z,59.39
2022-08-17T06:34:39.899Z,59.59
2022-08-17T06:35:39.991Z,59.59
2022-08-17T06:36:39.932Z,59.49
2022-08-17T06:37:39.894Z,59.49
2022-08-17T06:38:39.852Z,59.49
2022-08-17T06:39:39.911Z,59.39
2022-08-17T06:40:39.846Z,59.30
2022-08-17T06:41:39.846Z,59.30
2022-08-17T06:42:55.077Z,59.09
2022-08-17T06:43:39.822Z,59.00
2022-08-17T06:44:42.243Z,59.00
2022-08-17T06:45:39.793Z,58.80
2022-08-17T06:46:39.786Z,58.59
2022-08-17T06:47:39.784Z,58.50
2022-08-17T06:48:39.820Z,58.59
2022-08-17T06:49:39.748Z,58.40
2022-08-17T06:50:39.748Z,58.59
2022-08-17T06:51:39.761Z,58.80
2022-08-17T06:52:45.812Z,58.27
2022-08-17T06:53:39.796Z,58.40
2022-08-17T06:54:39.710Z,58.47
2022-08-17T06:55:39.682Z,58.67
2022-08-17T06:56:53.104Z,58.87
2022-08-17T06:57:42.277Z,58.87
2022-08-17T06:58:40.708Z,58.87
2022-08-17T06:59:55.244Z,59.00
2022-08-17T07:00:39.649Z,59.69
2022-08-17T07:01:39.705Z,60.19
2022-08-17T07:02:53.231Z,60.29
2022-08-17T07:03:39.598Z,60.59
2022-08-17T07:04:39.576Z,60.79
2022-08-17T07:05:39.765Z,60.79
2022-08-17T07:06:39.577Z,60.89
2022-08-17T07:07:39.565Z,60.99
2022-08-17T07:08:39.528Z,60.99
2022-08-17T07:09:40.683Z,60.99
2022-08-17T07:10:39.526Z,61.09
2022-08-17T07:11:39.558Z,60.89
2022-08-17T07:12:39.501Z,60.69
2022-08-17T07:13:39.491Z,60.49
2022-08-17T07:14:39.477Z,60.26
2022-08-17T07:15:39.479Z,60.29
2022-08-17T07:16:39.465Z,60.26
2022-08-17T07:17:47.184Z,60.06
2022-08-17T07:18:39.429Z,60.06
2022-08-17T07:19:39.667Z,60.16
2022-08-17T07:20:45.830Z,59.96
2022-08-17T07:21:39.421Z,59.56
2022-08-17T07:22:57.238Z,59.36
2022-08-17T07:23:39.389Z,59.56
2022-08-17T07:24:39.451Z,59.47
2022-08-17T07:25:39.405Z,59.06
2022-08-17T07:26:39.373Z,57.67
2022-08-17T07:27:39.386Z,57.87
2022-08-17T07:28:39.732Z,56.98
2022-08-17T07:29:39.322Z,56.27
2022-08-17T07:30:46.854Z,56.48
2022-08-17T07:31:39.350Z,54.58
2022-08-17T07:32:39.335Z,54.28
2022-08-17T07:33:39.300Z,53.39
2022-08-17T07:34:39.279Z,53.69
2022-08-17T07:35:41.229Z,54.08
2022-08-17T07:36:39.254Z,53.89
2022-08-17T07:37:39.311Z,53.19
2022-08-17T07:38:39.246Z,53.19
2022-08-17T07:39:59.698Z,53.09
2022-08-17T07:40:39.255Z,52.99
2022-08-17T07:41:53.439Z,52.99
2022-08-17T07:42:44.519Z,53.29
2022-08-17T07:43:39.193Z,53.78
2022-08-17T07:44:39.167Z,53.29
2022-08-17T07:45:40.155Z,53.49
2022-08-17T07:46:39.144Z,54.19
2022-08-17T07:47:39.137Z,54.58
2022-08-17T07:48:39.137Z,56.57
2022-08-17T07:49:39.129Z,55.48
2022-08-17T07:50:39.086Z,55.48
2022-08-17T07:51:39.096Z,56.18
2022-08-17T07:52:51.854Z,56.10
2022-08-17T07:53:43.780Z,55.11
2022-08-17T07:54:39.052Z,56.51
2022-08-17T07:55:39.092Z,56.81
2022-08-17T07:56:39.081Z,57.60
2022-08-17T07:57:39.124Z,57.40
2022-08-17T07:58:39.036Z,58.00
2022-08-17T07:59:39.149Z,58.29
2022-08-17T08:00:38.975Z,59.09
2022-08-17T08:01:39.663Z,58.80
2022-08-17T08:02:38.959Z,59.19
2022-08-17T08:03:38.975Z,58.89
2022-08-17T08:05:49.953Z,59.00
2022-08-17T08:07:49.628Z,59.99
2022-08-17T08:09:42.139Z,61.19
2022-08-17T08:10:45.208Z,60.09
2022-08-17T08:11:44.379Z,60.32
2022-08-17T08:12:41.786Z,62.21
2022-08-17T08:13:42.072Z,62.41
2022-08-17T08:14:41.724Z,61.11
2022-08-17T08:15:45.217Z,60.52
2022-08-17T08:16:41.681Z,61.85
2022-08-17T08:17:41.701Z,62.54
2022-08-17T08:18:55.529Z,62.64
2022-08-17T08:19:41.651Z,63.24
2022-08-17T08:20:53.926Z,62.94
2022-08-17T08:21:41.628Z,63.64
2022-08-17T08:22:41.622Z,63.74
2022-08-17T08:23:41.604Z,63.54
2022-08-17T08:24:41.612Z,63.61
2022-08-17T08:25:41.621Z,63.21
2022-08-17T08:26:41.581Z,62.12
2022-08-17T08:27:41.563Z,61.82
2022-08-17T08:28:41.618Z,60.09
2022-08-17T08:29:41.618Z,61.61
2022-08-17T08:30:41.565Z,62.48
2022-08-17T08:31:42.474Z,61.49
2022-08-17T08:32:41.568Z,62.15
2022-08-17T08:33:41.502Z,60.16
2022-08-17T08:34:58.842Z,59.14
2022-08-17T08:35:41.492Z,59.17
2022-08-17T08:37:13.032Z,59.56
2022-08-17T08:37:43.237Z,59.94
2022-08-17T08:38:41.454Z,58.64
2022-08-17T08:39:41.503Z,58.84
2022-08-17T08:40:41.450Z,58.67
2022-08-17T08:41:43.289Z,58.64
2022-08-17T08:42:41.404Z,58.94
2022-08-17T08:43:41.414Z,58.84
2022-08-17T08:45:00.534Z,59.14
2022-08-17T08:45:41.478Z,59.36
2022-08-17T08:46:41.371Z,59.23
2022-08-17T08:48:56.014Z,59.44
2022-08-17T08:50:03.807Z,59.06
2022-08-17T08:50:52.782Z,59.36
2022-08-17T08:51:52.763Z,58.27
2022-08-17T08:52:52.744Z,57.94
2022-08-17T08:53:52.746Z,57.75
2022-08-17T08:54:52.707Z,57.94
2022-08-17T08:55:52.717Z,58.24
2022-08-17T08:57:21.513Z,58.14
2022-08-17T08:57:52.796Z,58.34
2022-08-17T08:58:52.678Z,58.44
2022-08-17T08:59:58.161Z,58.34
2022-08-17T09:00:52.643Z,58.24
2022-08-17T09:01:53.537Z,58.04
2022-08-17T09:03:52.858Z,57.52
2022-08-17T09:05:13.051Z,57.42
2022-08-17T09:05:46.814Z,57.12
2022-08-17T09:06:46.845Z,57.32
2022-08-17T09:07:46.871Z,57.32
2022-08-17T09:08:46.890Z,57.42
2022-08-17T09:10:37.081Z,57.22
2022-08-17T09:12:01.786Z,57.22
2022-08-17T09:12:38.076Z,57.42
2022-08-17T09:13:38.057Z,57.62
2022-08-17T09:14:45.354Z,57.62
2022-08-17T09:15:38.095Z,57.62
2022-08-17T09:16:38.007Z,57.79
2022-08-17T09:17:38.025Z,57.19
2022-08-17T09:18:59.956Z,56.89
2022-08-17T09:19:38.019Z,57.29
2022-08-17T09:20:38.022Z,56.59
2022-08-17T09:21:38.003Z,56.70
2022-08-17T09:22:37.963Z,56.59
2022-08-17T09:23:37.978Z,56.70
2022-08-17T09:24:37.966Z,56.10
2022-08-17T09:25:37.918Z,56.10
2022-08-17T09:26:37.930Z,55.97
2022-08-17T09:27:37.934Z,55.47
2022-08-17T09:28:37.917Z,55.38
2022-08-17T09:29:37.909Z,54.35
2022-08-17T09:30:37.887Z,54.06
2022-08-17T09:31:47.089Z,54.03
2022-08-17T09:32:38.221Z,53.83
2022-08-17T09:34:33.075Z,53.31
2022-08-17T09:35:36.508Z,52.89
2022-08-17T09:36:31.800Z,52.19
2022-08-17T09:37:31.739Z,51.57
2022-08-17T09:38:32.691Z,51.25
2022-08-17T09:39:31.755Z,50.93
2022-08-17T09:41:23.079Z,48.24
2022-08-17T09:42:24.028Z,47.81
2022-08-17T09:43:24.004Z,47.54
2022-08-17T09:44:24.082Z,47.74
2022-08-17T09:45:23.970Z,47.77
2022-08-17T09:46:23.946Z,48.18
2022-08-17T09:47:24.026Z,48.48
2022-08-17T09:48:24.098Z,48.68
2022-08-17T09:50:55.415Z,47.96
2022-08-17T09:53:06.083Z,48.06
2022-08-17T09:54:36.818Z,48.16
2022-08-17T09:58:11.497Z,47.77
2022-08-17T09:58:16.667Z,48.06
2022-08-17T09:59:16.699Z,48.38
2022-08-17T10:00:28.189Z,48.58
2022-08-17T10:01:16.783Z,48.48
2022-08-17T10:02:16.620Z,48.77
2022-08-17T10:03:16.645Z,49.37
2022-08-17T10:04:19.990Z,49.00
2022-08-17T10:05:16.688Z,49.29
2022-08-17T10:06:21.733Z,48.53
2022-08-17T10:07:16.588Z,48.92
2022-08-17T10:08:16.601Z,49.02
2022-08-17T10:09:16.605Z,49.00
2022-08-17T10:10:16.547Z,48.90
2022-08-17T10:11:16.542Z,48.50
2022-08-17T10:12:17.398Z,48.40
2022-08-17T10:13:16.562Z,48.30
2022-08-17T10:14:37.054Z,48.30
2022-08-17T10:15:17.434Z,48.40
2022-08-17T10:16:16.488Z,48.70
2022-08-17T10:17:16.544Z,49.19
2022-08-17T10:18:16.451Z,49.02
2022-08-17T10:19:16.510Z,49.12
2022-08-17T10:20:16.474Z,49.42
2022-08-17T10:21:16.456Z,49.12
2022-08-17T10:22:34.477Z,49.42
2022-08-17T10:23:16.425Z,49.12
2022-08-17T10:24:16.465Z,49.71
2022-08-17T10:25:22.066Z,49.59
2022-08-17T10:26:16.402Z,49.40
2022-08-17T10:27:16.398Z,49.29
2022-08-17T10:28:20.309Z,49.10
2022-08-17T10:29:16.408Z,49.10
2022-08-17T10:30:16.417Z,49.42
2022-08-17T10:31:34.230Z,49.52
2022-08-17T10:32:16.334Z,49.52
2022-08-17T10:33:16.336Z,49.52
2022-08-17T10:34:17.327Z,49.71
2022-08-17T10:35:20.694Z,50.01
2022-08-17T10:37:06.638Z,49.91
2022-08-17T10:38:07.703Z,50.11
2022-08-17T10:39:07.632Z,50.01
2022-08-17T10:40:07.681Z,50.01
2022-08-17T10:41:07.664Z,50.01
2022-08-17T10:42:07.915Z,49.62
2022-08-17T10:43:07.609Z,49.00
2022-08-17T10:44:38.903Z,48.80
2022-08-17T10:45:07.613Z,48.80
2022-08-17T10:46:26.463Z,48.50
2022-08-17T10:47:07.564Z,49.00
2022-08-17T10:48:07.772Z,49.00
2022-08-17T10:49:07.544Z,48.92
2022-08-17T10:50:08.274Z,49.32
2022-08-17T10:51:07.685Z,49.71
2022-08-17T10:52:07.491Z,49.81
2022-08-17T10:53:07.477Z,50.11
2022-08-17T10:54:07.445Z,50.41
2022-08-17T10:55:07.479Z,50.21
2022-08-17T10:56:07.766Z,50.51
2022-08-17T10:57:07.426Z,50.60
2022-08-17T10:58:07.418Z,50.71
2022-08-17T10:59:07.419Z,51.03
2022-08-17T11:00:07.462Z,51.03
2022-08-17T11:01:07.600Z,51.23
2022-08-17T11:02:07.388Z,51.42
2022-08-17T11:03:07.370Z,51.42
2022-08-17T11:04:07.438Z,51.32
2022-08-17T11:05:07.349Z,51.00
2022-08-17T11:06:07.373Z,50.90
2022-08-17T11:07:07.376Z,50.60
2022-08-17T11:08:07.330Z,50.48
2022-08-17T11:09:07.334Z,50.09
2022-08-17T11:10:07.318Z,49.87
2022-08-17T11:11:07.296Z,49.05
2022-08-17T11:12:07.299Z,48.93
2022-08-17T11:13:07.290Z,47.79
2022-08-17T11:14:07.283Z,47.16
2022-08-17T11:15:07.278Z,45.21
2022-08-17T11:16:08.548Z,43.57
2022-08-17T11:17:07.229Z,42.24
2022-08-17T11:18:07.203Z,41.96
2022-08-17T11:19:07.203Z,41.53
2022-08-17T11:20:07.200Z,40.72
2022-08-17T11:21:07.246Z,40.80
2022-08-17T11:22:07.310Z,39.61
2022-08-17T11:23:07.291Z,39.80
2022-08-17T11:24:07.219Z,40.09
2022-08-17T11:25:07.179Z,40.08
2022-08-17T11:26:07.615Z,39.49
2022-08-17T11:27:07.155Z,39.88
2022-08-17T11:28:07.212Z,39.98
2022-08-17T11:29:07.419Z,39.47
2022-08-17T11:30:08.425Z,39.27
2022-08-17T11:31:07.532Z,38.67
2022-08-17T11:32:33.709Z,38.75
2022-08-17T11:33:07.299Z,37.75
2022-08-17T11:34:07.082Z,36.73
2022-08-17T11:35:07.067Z,36.02
2022-08-17T11:37:24.385Z,34.21
2022-08-17T11:38:25.389Z,33.80
2022-08-17T11:40:41.210Z,32.60
2022-08-17T11:41:41.700Z,32.78
2022-08-17T11:42:41.752Z,32.60
2022-08-17T11:43:42.913Z,33.11
2022-08-17T11:45:52.445Z,32.43
2022-08-17T11:47:07.042Z,33.15
2022-08-17T11:48:23.791Z,34.06
2022-08-17T11:48:53.370Z,34.78
2022-08-17T11:49:53.410Z,35.30
2022-08-17T11:50:53.368Z,36.12
2022-08-17T11:51:53.490Z,36.06
2022-08-17T11:52:53.565Z,37.07
2022-08-17T11:55:31.745Z,39.07
2022-08-17T11:56:05.755Z,39.88
2022-08-17T11:57:05.714Z,40.47
2022-08-17T11:58:05.750Z,40.69
2022-08-17T11:59:05.687Z,40.98
2022-08-17T12:00:05.697Z,41.19
2022-08-17T12:01:06.003Z,41.09
2022-08-17T12:02:05.672Z,41.19
2022-08-17T12:03:05.683Z,41.11
2022-08-17T12:04:05.700Z,41.11
2022-08-17T12:05:11.836Z,41.41
2022-08-17T12:06:05.633Z,41.61
2022-08-17T12:07:05.609Z,41.71
2022-08-17T12:08:05.870Z,41.71
2022-08-17T12:09:05.617Z,40.90
2022-08-17T12:10:05.614Z,40.70
2022-08-17T12:11:05.609Z,40.31
2022-08-17T12:12:12.763Z,40.21
2022-08-17T12:13:05.567Z,40.62
2022-08-17T12:14:05.581Z,41.11
2022-08-17T12:15:10.590Z,41.31
2022-08-17T12:16:05.594Z,40.92
2022-08-17T12:17:05.501Z,40.70
2022-08-17T12:18:05.509Z,40.39
2022-08-17T12:19:05.579Z,39.17
2022-08-17T12:20:05.556Z,38.17
2022-08-17T12:21:05.496Z,38.06
2022-08-17T12:22:05.531Z,38.15
2022-08-17T12:23:05.465Z,37.76
2022-08-17T12:24:05.456Z,37.65
2022-08-17T12:25:34.068Z,37.17
2022-08-17T12:26:06.179Z,37.58
2022-08-17T12:28:29.803Z,37.78
2022-08-17T12:32:23.150Z,40.33
2022-08-17T12:36:05.470Z,40.51
2022-08-17T12:37:06.433Z,39.40
2022-08-17T12:38:06.467Z,38.29
2022-08-17T12:39:14.095Z,37.78
2022-08-17T12:40:06.494Z,36.98
2022-08-17T12:41:06.389Z,36.86
2022-08-17T12:42:07.265Z,36.04
2022-08-17T12:43:06.370Z,35.85
2022-08-17T12:44:06.384Z,35.63
2022-08-17T12:45:06.350Z,35.42
2022-08-17T12:46:13.430Z,35.32
2022-08-17T12:47:06.325Z,34.91
2022-08-17T12:48:06.303Z,34.70
2022-08-17T12:49:06.323Z,34.11
2022-08-17T12:50:06.291Z,34.33
2022-08-17T12:52:18.108Z,34.01
2022-08-17T12:54:12.356Z,33.70
2022-08-17T12:55:13.177Z,33.90
2022-08-17T12:57:13.138Z,33.11
2022-08-17T12:59:07.814Z,32.68
2022-08-17T13:00:08.707Z,32.18
2022-08-17T13:01:08.753Z,31.56
2022-08-17T13:02:08.798Z,30.87
2022-08-17T13:03:08.703Z,30.36
2022-08-17T13:04:08.733Z,30.05
2022-08-17T13:05:08.693Z,29.74
2022-08-17T13:06:08.680Z,29.05
2022-08-17T13:07:08.766Z,29.14
2022-08-17T13:08:08.681Z,28.94
2022-08-17T13:09:08.745Z,29.04
2022-08-17T13:10:08.624Z,28.85
2022-08-17T13:11:12.171Z,29.04
2022-08-17T13:12:27.850Z,29.44
2022-08-17T13:13:25.401Z,29.25
2022-08-17T13:14:32.533Z,28.86
2022-08-17T13:15:08.576Z,28.55
2022-08-17T13:18:07.699Z,27.83
2022-08-17T13:19:08.654Z,27.32
2022-08-17T13:20:08.644Z,26.74
2022-08-17T13:21:08.623Z,26.43
2022-08-17T13:22:08.626Z,26.64
2022-08-17T13:23:12.369Z,27.45
2022-08-17T13:24:08.671Z,27.94
2022-08-17T13:25:08.661Z,27.73
2022-08-17T13:26:08.664Z,27.51
2022-08-17T13:27:08.833Z,27.40
2022-08-17T13:28:08.600Z,27.21
2022-08-17T13:29:40.457Z,27.00
2022-08-17T13:30:52.832Z,27.21
2022-08-17T13:31:10.253Z,27.32
2022-08-17T13:32:29.571Z,27.72
2022-08-17T13:33:08.537Z,28.23
2022-08-17T13:34:12.137Z,28.81
2022-08-17T13:35:14.219Z,28.43
2022-08-17T13:36:20.067Z,27.93
2022-08-17T13:39:33.100Z,27.81
2022-08-17T13:40:39.890Z,28.11
2022-08-17T13:41:33.183Z,28.02
2022-08-17T13:42:33.356Z,28.00
2022-08-17T13:43:33.149Z,27.03
2022-08-17T13:44:33.268Z,27.11
2022-08-17T13:45:36.269Z,27.11
2022-08-17T13:46:34.733Z,27.71
2022-08-17T13:48:46.455Z,28.93